Time;durP1;ratioP1;P1;durP2;ratioP2;P2;SDS_P1;SDS_P2;PMS_P1;PMS_P2;Temp;Humidity;BMP_temperature;BMP_pressure;BME280_temperature;BME280_humidity;BME280_pressure;Samples;Min_cycle;Max_cycle;Signal;HPM_P1;HPM_P2
2022/11/08 00:01:51;;;;;;;18.15;2.78;;;14.60;83.50;;;;;;5089471;28;20058;-74
2022/11/08 00:04:17;;;;;;;14.05;2.63;;;14.50;83.70;;;;;;5091705;28;20060;-74
2022/11/08 00:14:58;;;;;;;23.35;2.40;;;14.60;83.90;;;;;;5095212;28;20172;-72
2022/11/08 00:17:26;;;;;;;14.57;2.55;;;14.60;84.80;;;;;;5089978;28;20035;-74
2022/11/08 00:19:52;;;;;;;11.25;2.50;;;14.70;83.30;;;;;;5092502;28;20031;-74
2022/11/08 00:22:18;;;;;;;15.43;2.40;;;14.80;82.50;;;;;;5098056;28;20039;-73
2022/11/08 00:24:44;;;;;;;21.75;2.80;;;14.80;83.40;;;;;;5095869;28;20480;-73
2022/11/08 00:27:15;;;;;;;20.63;2.80;;;14.80;84.70;;;;;;5095781;28;20139;-73
2022/11/08 00:29:41;;;;;;;14.25;2.50;;;14.80;84.00;;;;;;5088686;28;20505;-74
2022/11/08 00:32:10;;;;;;;17.63;2.35;;;14.80;85.00;;;;;;5095593;28;20020;-74
2022/11/08 00:34:36;;;;;;;16.27;3.05;;;14.90;83.20;;;;;;5096420;28;20051;-73
2022/11/08 00:37:02;;;;;;;16.60;3.25;;;14.80;84.80;;;;;;5096264;28;20501;-74
2022/11/08 00:39:28;;;;;;;16.13;3.00;;;14.80;83.60;;;;;;5094294;28;20083;-75
2022/11/08 00:41:53;;;;;;;13.02;2.70;;;14.90;84.50;;;;;;5071427;28;20067;-74
2022/11/08 00:44:19;;;;;;;23.23;3.60;;;14.90;83.10;;;;;;5094735;28;20058;-73
2022/11/08 00:46:45;;;;;;;12.73;2.80;;;14.90;81.90;;;;;;5096633;28;20032;-73
2022/11/08 00:49:10;;;;;;;17.33;2.40;;;14.90;81.50;;;;;;5095339;28;20107;-74
2022/11/08 00:51:36;;;;;;;19.42;3.03;;;15.10;80.50;;;;;;5094617;28;20146;-74
2022/11/08 00:54:03;;;;;;;19.33;3.15;;;15.00;79.60;;;;;;5076352;28;20138;-74
2022/11/08 00:56:29;;;;;;;13.07;2.65;;;15.00;80.40;;;;;;5096155;28;20658;-74
2022/11/08 00:58:55;;;;;;;15.00;2.90;;;15.00;79.60;;;;;;5098685;28;20161;-72
2022/11/08 01:01:21;;;;;;;14.55;2.40;;;15.10;79.70;;;;;;5099304;28;20048;-74
2022/11/08 01:03:48;;;;;;;16.00;2.15;;;15.10;80.30;;;;;;5099233;28;20077;-73
2022/11/08 01:06:16;;;;;;;11.70;2.83;;;15.10;79.70;;;;;;5085580;28;20173;-74
2022/11/08 01:08:42;;;;;;;17.35;2.80;;;15.10;79.90;;;;;;5076735;28;20034;-75
2022/11/08 01:11:12;;;;;;;15.02;2.70;;;15.00;82.00;;;;;;5078132;28;20051;-74
2022/11/08 01:13:38;;;;;;;14.88;2.63;;;14.90;83.40;;;;;;5099675;28;20019;-74
2022/11/08 01:16:26;;;;;;;19.70;3.25;;;14.90;84.60;;;;;;5099566;28;20222;-75
2022/11/08 01:18:53;;;;;;;19.25;2.33;;;14.80;84.30;;;;;;5097439;28;20317;-73
2022/11/08 01:21:19;;;;;;;16.20;2.95;;;14.90;84.60;;;;;;5081191;28;20032;-74
2022/11/08 01:23:45;;;;;;;14.02;2.75;;;14.80;85.80;;;;;;5097898;28;20035;-74
2022/11/08 01:26:14;;;;;;;17.60;3.13;;;14.80;86.40;;;;;;5099240;28;20812;-73
2022/11/08 01:28:39;;;;;;;16.05;4.07;;;14.80;86.00;;;;;;5097340;28;20361;-74
2022/11/08 01:31:08;;;;;;;18.88;2.92;;;14.80;86.00;;;;;;5077076;28;20476;-74
2022/11/08 01:33:34;;;;;;;17.35;3.25;;;14.90;85.40;;;;;;5079271;28;20111;-74
2022/11/08 01:35:59;;;;;;;13.57;2.38;;;14.90;86.20;;;;;;5088183;28;20601;-74
2022/11/08 01:38:25;;;;;;;13.90;2.95;;;15.00;85.50;;;;;;5097710;28;20114;-74
2022/11/08 01:40:51;;;;;;;13.18;2.80;;;14.90;86.80;;;;;;5067249;28;20385;-74
2022/11/08 01:43:29;;;;;;;12.90;2.83;;;14.90;86.10;;;;;;5094538;28;20047;-74
2022/11/08 01:46:32;;;;;;;14.93;2.88;;;14.90;86.00;;;;;;5097828;28;20078;-74
2022/11/08 01:49:19;;;;;;;23.70;2.95;;;14.80;87.60;;;;;;5097297;28;20024;-74
2022/11/08 01:51:50;;;;;;;18.48;2.58;;;14.70;87.40;;;;;;5092601;28;20058;-74
2022/11/08 01:54:45;;;;;;;18.65;2.58;;;14.80;87.10;;;;;;5089183;28;20392;-74
2022/11/08 01:57:15;;;;;;;17.52;3.10;;;14.80;87.50;;;;;;5087633;28;20040;-73
2022/11/08 01:59:43;;;;;;;18.65;2.90;;;14.80;85.80;;;;;;5096270;28;20496;-74
2022/11/08 02:02:10;;;;;;;15.38;2.85;;;14.80;86.30;;;;;;5097161;28;21008;-74
2022/11/08 02:04:38;;;;;;;14.90;3.08;;;14.90;86.10;;;;;;5098860;28;20119;-74
2022/11/08 02:07:05;;;;;;;16.38;2.45;;;14.90;86.50;;;;;;5088056;28;20019;-75
2022/11/08 02:09:34;;;;;;;20.15;2.72;;;14.90;85.90;;;;;;5097453;28;20429;-74
2022/11/08 02:12:00;;;;;;;10.50;2.25;;;15.10;84.20;;;;;;5079610;28;20030;-74
2022/11/08 02:14:26;;;;;;;19.77;3.70;;;15.10;86.60;;;;;;5097576;28;20030;-74
2022/11/08 02:16:52;;;;;;;10.65;2.22;;;15.10;84.70;;;;;;5097653;28;20722;-73
2022/11/08 02:19:32;;;;;;;16.05;2.78;;;15.10;85.20;;;;;;5096568;28;20391;-74
2022/11/08 02:22:03;;;;;;;9.67;2.30;;;15.10;83.90;;;;;;5097612;28;20773;-74
2022/11/08 02:24:29;;;;;;;10.90;2.28;;;15.20;83.10;;;;;;5096214;28;20067;-74
2022/11/08 02:26:56;;;;;;;11.43;2.55;;;15.40;81.70;;;;;;5098511;28;20074;-74
2022/11/08 02:29:31;;;;;;;15.95;3.15;;;15.40;80.80;;;;;;5096260;28;20032;-73
2022/11/08 02:31:58;;;;;;;15.00;2.60;;;15.40;80.90;;;;;;5096259;28;20032;-73
2022/11/08 02:34:31;;;;;;;14.95;2.60;;;15.40;81.30;;;;;;5084220;28;20884;-74
2022/11/08 02:36:58;;;;;;;8.93;2.30;;;15.50;78.80;;;;;;5093608;28;20028;-75
2022/11/08 02:39:24;;;;;;;9.65;2.50;;;15.50;77.80;;;;;;5096371;28;20072;-74
2022/11/08 02:41:49;;;;;;;12.18;3.00;;;15.60;76.30;;;;;;5077900;28;20127;-74
2022/11/08 02:44:15;;;;;;;10.50;1.88;;;15.60;77.30;;;;;;5093280;28;20016;-74
2022/11/08 02:46:41;;;;;;;10.52;2.28;;;15.50;77.80;;;;;;5094408;28;20031;-74
2022/11/08 02:49:06;;;;;;;10.25;2.35;;;15.40;78.10;;;;;;5091106;28;20527;-75
2022/11/08 02:51:32;;;;;;;9.07;2.03;;;15.30;78.70;;;;;;5097229;28;20109;-73
2022/11/08 02:53:57;;;;;;;6.28;1.90;;;15.20;79.00;;;;;;5097146;28;20404;-74
2022/11/08 02:56:23;;;;;;;8.43;2.00;;;15.10;80.00;;;;;;5096363;28;20035;-73
2022/11/08 02:58:49;;;;;;;13.82;2.15;;;15.10;79.90;;;;;;5095515;28;20474;-74
2022/11/08 03:01:14;;;;;;;12.43;2.60;;;15.10;79.10;;;;;;5083369;28;20101;-73
2022/11/08 03:03:40;;;;;;;9.10;1.83;;;15.10;79.80;;;;;;5078707;28;20023;-74
2022/11/08 03:06:06;;;;;;;7.90;1.90;;;15.10;81.30;;;;;;5090770;28;20390;-74
2022/11/08 03:08:31;;;;;;;10.30;1.75;;;15.00;79.60;;;;;;5095583;28;20028;-73
2022/11/08 03:10:59;;;;;;;13.30;2.47;;;15.10;79.40;;;;;;5093932;28;20480;-74
2022/11/08 03:13:24;;;;;;;10.32;2.28;;;15.10;79.20;;;;;;5091236;28;20028;-73
2022/11/08 03:15:50;;;;;;;11.85;2.10;;;15.10;80.30;;;;;;5097253;28;20058;-75
2022/11/08 03:18:15;;;;;;;14.43;2.40;;;15.10;81.30;;;;;;5098975;28;20393;-75
2022/11/08 03:20:41;;;;;;;11.98;2.95;;;15.00;81.70;;;;;;5098446;28;20076;-73
2022/11/08 03:23:07;;;;;;;12.55;2.25;;;14.90;83.00;;;;;;5099278;28;20046;-73
2022/11/08 03:25:34;;;;;;;12.85;2.33;;;14.90;84.70;;;;;;5093126;28;20416;-74
2022/11/08 03:28:04;;;;;;;10.43;2.75;;;14.70;85.60;;;;;;5076735;28;20114;-74
2022/11/08 03:30:30;;;;;;;11.57;1.92;;;14.50;88.20;;;;;;5095225;28;20031;-73
2022/11/08 03:32:56;;;;;;;15.57;2.53;;;14.30;90.30;;;;;;5099436;28;20043;-74
2022/11/08 03:35:21;;;;;;;12.55;2.60;;;14.20;90.50;;;;;;5097774;28;20031;-73
2022/11/08 03:37:52;;;;;;;14.10;2.40;;;14.20;90.70;;;;;;5068401;28;20032;-73
2022/11/08 03:40:18;;;;;;;9.93;2.43;;;14.10;91.20;;;;;;5088324;28;20023;-73
2022/11/08 03:42:44;;;;;;;11.52;2.22;;;14.10;91.00;;;;;;5081420;28;20035;-74
2022/11/08 03:45:10;;;;;;;12.98;2.80;;;14.00;90.70;;;;;;5087618;28;20032;-73
2022/11/08 03:47:41;;;;;;;10.88;2.20;;;14.10;90.40;;;;;;5099271;28;20096;-73
2022/11/08 03:50:07;;;;;;;11.50;2.33;;;14.10;91.40;;;;;;5084312;28;20031;-74
2022/11/08 03:52:47;;;;;;;19.83;3.00;;;14.10;90.80;;;;;;5099681;28;20039;-74
2022/11/08 03:55:15;;;;;;;9.65;2.00;;;14.10;90.90;;;;;;5098430;28;20019;-73
2022/11/08 03:57:41;;;;;;;12.60;2.45;;;14.10;91.20;;;;;;5099770;28;20749;-74
2022/11/08 04:00:09;;;;;;;14.23;2.88;;;14.00;91.40;;;;;;5097869;28;20163;-74
2022/11/08 04:02:35;;;;;;;14.60;2.45;;;13.90;92.10;;;;;;5083532;28;20035;-74
2022/11/08 04:05:01;;;;;;;19.08;3.10;;;13.80;92.10;;;;;;5099400;28;20919;-75
2022/11/08 04:07:27;;;;;;;14.95;2.38;;;13.80;92.60;;;;;;5098492;28;20130;-74
2022/11/08 04:09:54;;;;;;;14.27;2.30;;;13.80;92.80;;;;;;5097232;28;20114;-74
2022/11/08 04:15:15;;;;;;;19.35;2.67;;;13.60;93.60;;;;;;5055469;28;20044;-75
2022/11/08 04:23:24;;;;;;;10.32;2.13;;;13.40;94.50;;;;;;5098622;28;20117;-74
2022/11/08 04:25:58;;;;;;;12.48;2.13;;;13.40;93.90;;;;;;5095459;28;20549;-75
2022/11/08 04:28:29;;;;;;;14.68;2.63;;;13.40;94.10;;;;;;5098046;28;20070;-75
2022/11/08 04:31:01;;;;;;;18.60;2.55;;;13.40;94.10;;;;;;5097887;28;20061;-75
2022/11/08 04:33:27;;;;;;;8.45;1.73;;;13.30;93.60;;;;;;5097986;28;20058;-74
2022/11/08 04:35:53;;;;;;;13.07;2.33;;;13.30;92.80;;;;;;5098019;28;20490;-75
2022/11/08 04:38:19;;;;;;;7.95;1.58;;;13.30;92.60;;;;;;5075966;28;20039;-74
2022/11/08 04:40:45;;;;;;;11.95;1.50;;;13.30;91.90;;;;;;5061169;28;20067;-74
2022/11/08 04:43:11;;;;;;;10.75;2.55;;;13.30;92.10;;;;;;5078420;28;20070;-74
2022/11/08 04:45:38;;;;;;;12.43;1.25;;;13.30;91.90;;;;;;5078830;28;20031;-74
2022/11/08 04:48:03;;;;;;;7.75;1.00;;;13.40;91.40;;;;;;5092341;28;20521;-74
2022/11/08 04:50:29;;;;;;;8.57;1.70;;;13.50;91.70;;;;;;5087224;28;20165;-74
2022/11/08 04:52:55;;;;;;;10.90;2.08;;;13.40;92.00;;;;;;5094891;28;20032;-74
2022/11/08 04:55:21;;;;;;;6.30;1.48;;;13.30;93.30;;;;;;5095093;28;20042;-74
2022/11/08 04:57:48;;;;;;;8.95;1.45;;;13.30;93.60;;;;;;5096855;28;20034;-74
2022/11/08 05:00:15;;;;;;;13.52;1.95;;;13.20;94.50;;;;;;5085731;28;20023;-75
2022/11/08 05:02:40;;;;;;;14.82;2.50;;;13.20;94.80;;;;;;5068149;28;20149;-75
2022/11/08 05:05:07;;;;;;;15.13;3.08;;;13.20;95.20;;;;;;5077427;28;20024;-74
2022/11/08 05:07:32;;;;;;;13.65;2.00;;;13.20;95.60;;;;;;5089621;28;20028;-75
2022/11/08 05:09:58;;;;;;;19.48;3.13;;;13.30;95.80;;;;;;5078055;28;20055;-75
2022/11/08 05:12:24;;;;;;;16.67;2.42;;;13.20;96.00;;;;;;5098379;28;20102;-75
2022/11/08 05:14:49;;;;;;;14.82;2.60;;;13.30;95.90;;;;;;5067837;28;20089;-74
2022/11/08 05:17:15;;;;;;;12.02;2.03;;;13.30;94.70;;;;;;5083540;28;20030;-74
2022/11/08 05:25:09;;;;;;;10.93;1.52;;;13.20;93.20;;;;;;5095815;28;20023;-74
2022/11/08 05:27:35;;;;;;;7.95;1.58;;;13.20;93.90;;;;;;5098344;28;20051;-75
2022/11/08 05:30:01;;;;;;;9.65;1.40;;;13.20;92.80;;;;;;5096639;28;20051;-74
2022/11/08 05:32:26;;;;;;;13.52;1.42;;;13.20;92.70;;;;;;5092916;28;20032;-75
2022/11/08 05:34:52;;;;;;;9.32;2.33;;;13.20;93.70;;;;;;5095405;28;20106;-74
2022/11/08 05:37:17;;;;;;;12.25;1.48;;;13.20;92.90;;;;;;5096787;28;20027;-74
2022/11/08 05:39:43;;;;;;;8.35;1.00;;;13.10;93.00;;;;;;5083282;28;20825;-75
2022/11/08 05:42:09;;;;;;;5.95;0.82;;;13.10;92.90;;;;;;5099278;28;21052;-74
2022/11/08 05:44:34;;;;;;;5.70;1.02;;;13.10;93.10;;;;;;5082000;28;20762;-74
2022/11/08 05:47:00;;;;;;;8.10;1.13;;;13.10;93.30;;;;;;5102408;28;20034;-74
2022/11/08 05:49:26;;;;;;;7.97;1.20;;;13.10;92.80;;;;;;5100103;28;20167;-74
2022/11/08 05:51:51;;;;;;;12.77;1.50;;;13.20;93.60;;;;;;5078639;28;20126;-74
2022/11/08 05:54:17;;;;;;;16.15;1.48;;;13.10;93.50;;;;;;5097274;28;20039;-74
2022/11/08 05:56:42;;;;;;;8.80;1.70;;;13.10;94.10;;;;;;5100807;28;20027;-73
2022/11/08 05:59:08;;;;;;;16.52;1.55;;;13.10;93.20;;;;;;5098243;28;20371;-74
2022/11/08 06:01:34;;;;;;;11.43;1.30;;;13.20;93.20;;;;;;5077399;28;20820;-75
2022/11/08 06:03:59;;;;;;;9.48;1.20;;;13.20;93.20;;;;;;5079104;28;20028;-74
2022/11/08 06:06:25;;;;;;;13.48;1.42;;;13.20;92.70;;;;;;5076435;28;20032;-74
2022/11/08 06:08:51;;;;;;;13.32;1.50;;;13.20;93.20;;;;;;5094318;28;20023;-74
2022/11/08 06:11:20;;;;;;;13.43;1.80;;;13.30;92.10;;;;;;5099770;28;20051;-74
2022/11/08 06:13:46;;;;;;;9.20;1.58;;;13.40;91.80;;;;;;5099816;28;20115;-74
2022/11/08 06:16:13;;;;;;;22.38;1.77;;;13.30;92.20;;;;;;5086155;28;20036;-74
2022/11/08 06:18:40;;;;;;;7.45;1.25;;;13.30;92.60;;;;;;5100084;28;20023;-74
2022/11/08 06:21:10;;;;;;;12.40;2.42;;;13.30;92.00;;;;;;5098166;28;20035;-74
2022/11/08 06:23:35;;;;;;;14.25;1.55;;;13.20;91.90;;;;;;5079854;28;20073;-74
2022/11/08 06:26:01;;;;;;;11.15;1.15;;;13.10;92.50;;;;;;5066584;28;20483;-74
2022/11/08 06:28:27;;;;;;;12.35;1.88;;;13.10;91.90;;;;;;5093165;28;20226;-74
2022/11/08 06:30:53;;;;;;;11.48;1.33;;;13.20;92.30;;;;;;5096187;28;20050;-74
2022/11/08 06:33:19;;;;;;;19.67;1.88;;;13.20;92.00;;;;;;5096957;28;20054;-74
2022/11/08 06:35:45;;;;;;;10.30;1.33;;;13.20;92.50;;;;;;5069934;28;20386;-73
2022/11/08 06:38:11;;;;;;;11.77;1.50;;;13.30;91.50;;;;;;5097441;28;20032;-73
2022/11/08 06:40:38;;;;;;;11.70;1.40;;;13.30;90.70;;;;;;5092398;28;20027;-73
2022/11/08 06:43:04;;;;;;;14.77;1.45;;;13.30;91.20;;;;;;5096101;28;20324;-74
2022/11/08 06:45:30;;;;;;;16.52;2.22;;;13.20;91.60;;;;;;5075717;28;20046;-73
2022/11/08 06:47:57;;;;;;;15.77;1.60;;;13.10;91.90;;;;;;5099866;28;20405;-73
2022/11/08 06:50:23;;;;;;;12.02;1.63;;;13.10;92.60;;;;;;5098376;28;20067;-73
2022/11/08 06:52:55;;;;;;;13.15;1.85;;;13.20;92.50;;;;;;5083163;28;20123;-73
2022/11/08 06:55:21;;;;;;;12.50;1.77;;;13.20;92.50;;;;;;5098695;28;20506;-74
2022/11/08 06:57:46;;;;;;;18.50;1.98;;;13.20;92.40;;;;;;5097204;28;20027;-74
2022/11/08 07:00:14;;;;;;;13.55;1.58;;;13.30;92.00;;;;;;5098452;28;20050;-73
2022/11/08 07:02:39;;;;;;;13.57;1.40;;;13.30;92.10;;;;;;5097282;28;20074;-73
2022/11/08 07:05:05;;;;;;;13.10;1.52;;;13.30;91.50;;;;;;5094460;28;20110;-73
2022/11/08 07:07:31;;;;;;;15.30;2.20;;;13.40;91.60;;;;;;5097938;28;20031;-74
2022/11/08 07:09:57;;;;;;;15.32;1.73;;;13.40;91.40;;;;;;5099126;28;20042;-73
2022/11/08 07:12:22;;;;;;;14.48;1.90;;;13.40;91.50;;;;;;5099682;28;20302;-73
2022/11/08 07:14:48;;;;;;;17.90;2.33;;;13.30;91.50;;;;;;5098306;28;20084;-73
2022/11/08 07:17:14;;;;;;;15.35;1.58;;;13.40;91.10;;;;;;5095010;28;20031;-74
2022/11/08 07:19:40;;;;;;;14.88;1.67;;;13.50;90.80;;;;;;5071808;28;20159;-74
2022/11/08 07:22:06;;;;;;;12.60;1.65;;;13.50;90.30;;;;;;5091003;28;20039;-74
2022/11/08 07:24:31;;;;;;;10.65;1.70;;;13.50;90.50;;;;;;5094109;28;20038;-73
2022/11/08 07:26:57;;;;;;;11.13;1.95;;;13.60;90.40;;;;;;5093816;28;20032;-73
2022/11/08 07:29:22;;;;;;;10.68;1.67;;;13.50;90.80;;;;;;5091435;28;20055;-74
2022/11/08 07:31:48;;;;;;;19.00;2.47;;;13.50;91.20;;;;;;5097368;28;20027;-73
2022/11/08 07:34:14;;;;;;;14.07;1.63;;;13.50;91.40;;;;;;5088425;28;20452;-73
2022/11/08 07:36:39;;;;;;;10.40;1.77;;;13.60;91.00;;;;;;5085988;28;20127;-73
2022/11/08 07:39:05;;;;;;;11.77;1.80;;;13.70;90.30;;;;;;5087517;28;20066;-73
2022/11/08 07:41:31;;;;;;;12.80;1.85;;;13.70;90.10;;;;;;5070814;28;20461;-73
2022/11/08 07:43:56;;;;;;;17.17;2.60;;;13.80;90.30;;;;;;5088043;28;20043;-73
2022/11/08 07:46:22;;;;;;;15.93;2.03;;;13.90;89.80;;;;;;5093417;28;20027;-73
2022/11/08 07:48:47;;;;;;;16.13;2.42;;;13.90;90.30;;;;;;5090483;28;21026;-73
2022/11/08 07:51:13;;;;;;;11.13;1.60;;;13.90;90.30;;;;;;5090280;28;20031;-74
2022/11/08 07:53:38;;;;;;;16.60;1.52;;;14.00;88.60;;;;;;5089890;28;20102;-73
2022/11/08 07:56:04;;;;;;;10.60;1.58;;;14.10;88.20;;;;;;5088250;28;20156;-73
2022/11/08 07:58:30;;;;;;;14.05;1.70;;;14.10;88.70;;;;;;5091783;28;20496;-73
2022/11/08 08:01:01;;;;;;;9.90;1.73;;;14.10;88.60;;;;;;5072881;28;20160;-72
2022/11/08 08:03:26;;;;;;;9.88;1.50;;;14.10;89.70;;;;;;5089679;28;20028;-73
2022/11/08 08:05:55;;;;;;;17.60;1.40;;;14.10;89.70;;;;;;5082555;28;20051;-73
2022/11/08 08:08:21;;;;;;;14.35;1.88;;;14.10;90.50;;;;;;5093908;28;20092;-73
2022/11/08 08:10:47;;;;;;;10.95;1.73;;;14.30;89.60;;;;;;5088251;28;20032;-73
2022/11/08 08:13:13;;;;;;;12.38;1.20;;;14.40;89.20;;;;;;5099313;28;20054;-73
2022/11/08 08:15:39;;;;;;;11.20;1.77;;;14.50;89.40;;;;;;5082251;28;20024;-73
2022/11/08 08:18:06;;;;;;;13.25;1.40;;;14.70;88.10;;;;;;5088031;28;20023;-73
2022/11/08 08:20:33;;;;;;;10.60;1.42;;;14.90;88.30;;;;;;5087538;28;20028;-73
2022/11/08 08:23:00;;;;;;;15.90;1.50;;;15.30;85.80;;;;;;5065844;28;20188;-73
2022/11/08 08:25:26;;;;;;;16.48;1.90;;;15.40;84.60;;;;;;5076067;28;20035;-73
2022/11/08 08:27:54;;;;;;;10.70;1.58;;;15.50;82.50;;;;;;5081531;28;20512;-72
2022/11/08 08:30:21;;;;;;;11.80;1.70;;;15.50;82.30;;;;;;5087147;28;20046;-73
2022/11/08 08:32:47;;;;;;;13.38;1.95;;;15.20;82.40;;;;;;5082852;28;20035;-73
2022/11/08 08:35:13;;;;;;;14.02;2.05;;;15.10;84.00;;;;;;5080897;28;20294;-74
2022/11/08 08:37:39;;;;;;;16.17;1.88;;;15.10;83.30;;;;;;5081536;28;20035;-73
2022/11/08 08:40:06;;;;;;;16.13;2.08;;;15.10;85.40;;;;;;5088364;28;20023;-74
2022/11/08 08:42:33;;;;;;;10.40;1.38;;;15.10;83.60;;;;;;5086593;28;20043;-73
2022/11/08 08:44:59;;;;;;;17.17;1.60;;;15.00;84.30;;;;;;5094889;28;20027;-73
2022/11/08 08:47:24;;;;;;;16.33;1.80;;;15.00;84.60;;;;;;5098863;28;20032;-73
2022/11/08 08:49:50;;;;;;;16.40;1.85;;;15.00;85.20;;;;;;5098358;28;20038;-73
2022/11/08 08:52:16;;;;;;;17.58;2.10;;;15.00;85.60;;;;;;5080357;28;20119;-73
2022/11/08 08:54:41;;;;;;;10.95;2.08;;;14.90;84.50;;;;;;5078565;28;20040;-73
2022/11/08 08:57:07;;;;;;;13.38;1.80;;;14.80;86.00;;;;;;5082356;28;20475;-73
2022/11/08 08:59:33;;;;;;;16.45;1.60;;;14.70;85.90;;;;;;5086141;28;20562;-73
2022/11/08 09:01:59;;;;;;;21.00;2.38;;;14.70;85.20;;;;;;5084149;28;20055;-73
2022/11/08 09:04:28;;;;;;;14.32;2.10;;;14.70;85.50;;;;;;5083857;28;20073;-73
2022/11/08 09:06:54;;;;;;;16.27;1.85;;;14.70;86.40;;;;;;5082277;28;20451;-74
2022/11/08 09:09:20;;;;;;;16.67;1.73;;;14.60;86.10;;;;;;5081606;28;20102;-73
2022/11/08 09:11:46;;;;;;;11.70;1.70;;;14.70;85.70;;;;;;5077059;28;20131;-73
2022/11/08 09:14:12;;;;;;;12.00;1.88;;;14.70;85.40;;;;;;5081396;28;20158;-73
2022/11/08 09:16:38;;;;;;;14.40;1.80;;;14.70;85.90;;;;;;5081452;28;20154;-72
2022/11/08 09:19:03;;;;;;;12.75;1.58;;;14.60;86.30;;;;;;5075681;28;20028;-73
2022/11/08 09:21:29;;;;;;;23.40;2.40;;;14.60;86.50;;;;;;5087312;28;20040;-72
2022/11/08 09:23:55;;;;;;;13.75;2.00;;;14.60;86.00;;;;;;5099378;28;20028;-73
2022/11/08 09:26:20;;;;;;;14.40;1.85;;;14.70;86.30;;;;;;5085513;28;20490;-73
2022/11/08 09:28:46;;;;;;;9.05;1.10;;;14.70;85.80;;;;;;5096814;28;20374;-73
2022/11/08 09:31:12;;;;;;;14.63;2.58;;;14.80;86.60;;;;;;5089356;28;20093;-71
2022/11/08 09:33:38;;;;;;;15.95;1.70;;;14.90;85.30;;;;;;5088496;28;20027;-73
2022/11/08 09:36:05;;;;;;;13.82;2.00;;;14.90;85.30;;;;;;5092833;28;20027;-72
2022/11/08 09:38:31;;;;;;;12.95;1.88;;;15.00;85.20;;;;;;5092852;28;20024;-73
2022/11/08 09:41:15;;;;;;;15.07;1.80;;;15.20;83.30;;;;;;5092571;28;20116;-72
2022/11/08 09:43:58;;;;;;;10.88;1.88;;;15.30;83.90;;;;;;5088267;28;20086;-73
2022/11/08 09:46:32;;;;;;;16.13;1.80;;;15.20;81.50;;;;;;5077471;28;20019;-73
2022/11/08 09:49:00;;;;;;;15.60;2.08;;;15.00;81.60;;;;;;5093469;28;20023;-73
2022/11/08 09:51:28;;;;;;;15.27;2.00;;;15.00;82.20;;;;;;5083346;28;20023;-72
2022/11/08 09:53:59;;;;;;;13.10;1.70;;;15.10;83.80;;;;;;5085071;28;20090;-73
2022/11/08 09:56:30;;;;;;;9.77;1.40;;;15.20;83.10;;;;;;5084572;28;20028;-72
2022/11/08 09:59:14;;;;;;;14.98;1.75;;;15.40;84.30;;;;;;5080803;28;20121;-73
2022/11/08 10:01:41;;;;;;;14.98;1.88;;;15.40;83.70;;;;;;5082221;28;20308;-72
2022/11/08 10:04:19;;;;;;;16.55;1.88;;;15.80;83.90;;;;;;5087507;28;20040;-72
2022/11/08 10:07:20;;;;;;;14.88;1.92;;;16.50;79.70;;;;;;5095519;28;20072;-73
2022/11/08 10:09:58;;;;;;;13.90;1.98;;;16.40;77.20;;;;;;5027230;28;20576;-72
2022/11/08 10:12:24;;;;;;;21.70;2.47;;;16.30;78.60;;;;;;5074464;28;20092;-71
2022/11/08 10:15:02;;;;;;;17.33;2.38;;;16.20;78.50;;;;;;5088668;28;20035;-71
2022/11/08 10:17:44;;;;;;;18.73;1.92;;;16.00;79.90;;;;;;5090223;28;20028;-73
2022/11/08 10:20:24;;;;;;;21.48;2.30;;;15.80;80.20;;;;;;5086937;28;20020;-72
2022/11/08 10:23:06;;;;;;;20.90;2.35;;;15.70;82.00;;;;;;5093473;28;20454;-72
2022/11/08 10:25:59;;;;;;;13.45;1.63;;;15.60;82.80;;;;;;5089942;28;20032;-72
2022/11/08 10:28:43;;;;;;;14.88;2.45;;;15.50;81.30;;;;;;5069142;28;20028;-72
2022/11/08 10:31:12;;;;;;;21.30;2.53;;;15.40;82.50;;;;;;5093926;28;20019;-72
2022/11/08 10:33:57;;;;;;;20.73;3.22;;;15.60;84.60;;;;;;5090668;28;20028;-72
2022/11/08 10:36:33;;;;;;;12.90;1.60;;;15.80;82.00;;;;;;5096732;28;20028;-72
2022/11/08 10:39:07;;;;;;;22.70;2.50;;;15.80;80.50;;;;;;5066891;28;20577;-72
2022/11/08 10:41:52;;;;;;;19.38;2.88;;;15.70;82.60;;;;;;5093716;28;20435;-73
2022/11/08 10:44:20;;;;;;;16.83;2.65;;;15.70;82.40;;;;;;5094824;28;20027;-72
2022/11/08 10:46:49;;;;;;;14.20;2.05;;;15.80;83.10;;;;;;5099653;28;20059;-73
2022/11/08 10:49:18;;;;;;;20.85;2.78;;;15.80;81.70;;;;;;5096514;28;20089;-73
2022/11/08 10:51:46;;;;;;;20.27;3.45;;;15.60;80.90;;;;;;5079845;28;20036;-73
2022/11/08 10:54:41;;;;;;;14.77;2.25;;;15.60;81.80;;;;;;5093019;28;20449;-73
2022/11/08 10:57:08;;;;;;;22.95;2.83;;;15.70;81.90;;;;;;5081255;28;20031;-73
2022/11/08 10:59:34;;;;;;;15.30;2.15;;;15.70;81.60;;;;;;5097927;28;20024;-72
2022/11/08 11:02:00;;;;;;;13.90;1.65;;;15.60;83.50;;;;;;5077825;28;20051;-73
2022/11/08 11:04:31;;;;;;;15.13;2.53;;;15.50;81.40;;;;;;5090747;28;20028;-72
2022/11/08 11:07:02;;;;;;;21.58;2.78;;;15.50;84.00;;;;;;5091414;28;20038;-72
2022/11/08 11:09:28;;;;;;;20.63;2.60;;;15.60;82.80;;;;;;5086515;28;20027;-72
2022/11/08 11:11:59;;;;;;;21.60;2.55;;;15.80;82.90;;;;;;5090548;28;20115;-72
2022/11/08 11:14:25;;;;;;;17.83;2.30;;;16.10;80.90;;;;;;5090900;28;20530;-72
2022/11/08 11:16:54;;;;;;;18.70;3.08;;;16.30;80.40;;;;;;5086295;28;20215;-72
2022/11/08 11:19:20;;;;;;;15.98;2.03;;;16.50;79.80;;;;;;5078697;28;20084;-72
2022/11/08 11:21:52;;;;;;;18.67;2.63;;;16.60;79.50;;;;;;5094119;28;20035;-72
2022/11/08 11:24:19;;;;;;;15.82;2.20;;;17.00;79.70;;;;;;5086257;28;20728;-72
2022/11/08 11:26:47;;;;;;;18.60;2.63;;;17.50;75.70;;;;;;5089633;28;20036;-72
2022/11/08 11:29:23;;;;;;;20.60;2.83;;;17.40;75.20;;;;;;5087082;28;20028;-72
2022/11/08 11:31:51;;;;;;;22.02;2.65;;;17.30;75.10;;;;;;5091133;28;20377;-73
2022/11/08 11:34:17;;;;;;;19.23;2.22;;;16.90;75.80;;;;;;5092691;28;20034;-73
2022/11/08 11:36:51;;;;;;;20.77;2.72;;;16.60;76.60;;;;;;5088013;28;20031;-72
2022/11/08 11:39:43;;;;;;;24.52;2.72;;;16.30;77.20;;;;;;5088132;28;20414;-72
2022/11/08 11:42:11;;;;;;;20.83;2.30;;;16.20;78.50;;;;;;5068002;28;20641;-72
2022/11/08 11:44:57;;;;;;;24.20;3.08;;;16.20;79.10;;;;;;5087901;28;21070;-72
2022/11/08 11:47:48;;;;;;;22.77;2.92;;;16.00;80.10;;;;;;5088455;28;20367;-71
2022/11/08 11:50:32;;;;;;;18.27;2.83;;;16.00;81.60;;;;;;5088792;28;20111;-72
2022/11/08 11:53:00;;;;;;;17.10;2.72;;;16.30;80.30;;;;;;5091612;28;20601;-72
2022/11/08 11:56:07;;;;;;;16.90;2.40;;;16.70;80.00;;;;;;5088048;28;20486;-72
2022/11/08 11:58:45;;;;;;;19.40;2.63;;;16.70;76.40;;;;;;5009892;28;20029;-73
2022/11/08 12:01:54;;;;;;;18.50;2.30;;;16.20;77.80;;;;;;5013330;28;20104;-72
2022/11/08 12:05:04;;;;;;;21.23;2.72;;;16.00;79.10;;;;;;5028497;28;20537;-72
2022/11/08 12:07:31;;;;;;;24.73;3.00;;;16.50;79.30;;;;;;4656459;28;10000506;-72
2022/11/08 12:10:12;;;;;;;20.42;2.72;;;16.70;77.80;;;;;;5074864;28;20085;-74
2022/11/08 12:13:20;;;;;;;21.10;2.53;;;16.50;77.10;;;;;;5087650;28;20031;-72
2022/11/08 12:15:59;;;;;;;21.95;2.30;;;16.80;77.00;;;;;;5027659;28;20470;-72
2022/11/08 12:18:52;;;;;;;17.15;2.60;;;17.00;75.40;;;;;;5077943;28;20107;-73
2022/11/08 12:21:29;;;;;;;19.98;2.70;;;17.20;74.30;;;;;;5078633;28;20103;-73
2022/11/08 12:23:58;;;;;;;20.75;2.58;;;17.30;72.60;;;;;;5064544;28;20054;-73
2022/11/08 12:26:30;;;;;;;15.13;2.40;;;16.90;72.70;;;;;;5086749;28;20268;-73
2022/11/08 12:29:11;;;;;;;20.08;2.75;;;16.50;74.20;;;;;;5077859;28;20704;-73
2022/11/08 12:31:48;;;;;;;22.20;3.25;;;16.00;77.20;;;;;;5080132;28;20565;-72
2022/11/08 12:34:28;;;;;;;20.50;2.55;;;15.80;80.00;;;;;;5058139;28;20055;-73
2022/11/08 12:37:10;;;;;;;26.88;3.40;;;15.50;83.20;;;;;;5084253;28;20143;-73
2022/11/08 12:39:43;;;;;;;23.58;3.17;;;15.10;88.70;;;;;;5077854;28;20039;-74
2022/11/08 12:42:15;;;;;;;24.42;2.83;;;14.90;90.80;;;;;;5084226;28;20130;-74
2022/11/08 12:44:49;;;;;;;18.95;2.17;;;14.90;91.70;;;;;;5081865;28;20024;-73
2022/11/08 12:47:29;;;;;;;25.35;2.53;;;14.80;89.40;;;;;;5079892;28;20057;-74
2022/11/08 12:50:02;;;;;;;19.83;2.67;;;14.80;91.00;;;;;;5062027;28;20027;-73
2022/11/08 12:52:52;;;;;;;25.38;2.90;;;14.90;90.30;;;;;;5065072;28;20031;-73
2022/11/08 12:55:36;;;;;;;19.42;2.67;;;15.10;89.00;;;;;;5081756;28;20396;-73
2022/11/08 12:58:26;;;;;;;23.00;2.75;;;15.10;87.90;;;;;;5082484;28;20028;-73
2022/11/08 13:00:58;;;;;;;20.83;2.80;;;15.10;87.80;;;;;;5074779;28;20048;-72
2022/11/08 13:03:59;;;;;;;;;;;15.20;87.20;;;;;;5068326;28;20031;-74
2022/11/08 13:06:27;;;;;;;21.30;2.83;;;15.20;88.10;;;;;;5012230;28;19953;-74
2022/11/08 13:09:10;;;;;;;17.17;2.35;;;14.90;89.00;;;;;;5066718;28;20024;-74
2022/11/08 13:11:40;;;;;;;30.30;2.72;;;14.60;91.20;;;;;;5083184;28;20024;-74
2022/11/08 13:14:13;;;;;;;23.05;2.90;;;14.40;92.00;;;;;;5085566;28;20032;-73